Tiempo atmosférico en la estación meteorológica de Frontera, Sabinosa, Santa Cruz de Tenerife (20 m.)



Fecha
DESCASC
Temp. máxima en grados centígrados (hora)
DESCASC
Temp. mínima en grados centígrados (hora)
DESCASC
Temp. media en grados centígrados
DESCASC
Racha de viento máxima en m/sg (hora)
DESCASC
Velocidad máxima media en intervalos de 10 minutos(hora)
DESCASC
Precipitaciones diarias en mm
DESCASC
Precipitaciones de 00:00 a 06:00 en mm
DESCASC
Precipitaciones de 06:00 a 12:00 en mm
DESCASC
Precipitaciones de 12:00 a 18:00 en mm
DESCASC
Precipitaciones de 18:00 a 24:00 en mm
DESCASC
23-05-2018 22.3 (12:00) 18.5 (03:50) 20.4 7.78 (05:00) 5.83 (05:00) 0 0 0 0 0
22-05-2018 23.5 (16:30) 17 (07:00) 20.3 4.44 (22:00) 3.06 (09:30) 0 0 0 0 0
21-05-2018 23.6 (15:00) 18 (05:20) 20.8 6.39 (11:00) 3.89 (07:30) 0 0 0 0 0
20-05-2018 23.3 (15:30) 17.7 (00:00) 20.5 8.61 (00:40) 5.28 (12:50) 0 0 0 0 0
19-05-2018 22.5 (15:50) 17.8 (03:20) 20.1 7.5 (17:30) 5 (07:50) 0 0 0 0 0
18-05-2018 22.6 (16:20) 18 (00:00) 20.3 8.33 (12:10) 5.83 (08:40) 0 0 0 0 0
17-05-2018 22.8 (14:40) 18.2 (00:00) 20.5 10 (15:30) 6.39 (00:30) 0 0 0 0 0
16-05-2018 23 (15:10) 17.8 (00:00) 20.4 10.56 (06:40) 6.11 (06:40) 0 0 0 0 0
15-05-2018 22.5 (16:00) 17.6 (00:00) 20.1 9.72 (04:10) 5.83 (18:30) 0 0 0 0 0
14-05-2018 19.9 (19:30) 17.7 (00:00) 18.8 11.94 (10:50) 6.94 (02:30) 0 0 0 0 0
13-05-2018 19.7 (00:20) 17.8 (00:00) 18.8 12.5 (18:20) 7.78 (15:20) 0 0 0 0 0
12-05-2018 21.7 (16:40) 18.4 (00:00) 20.1 13.06 (14:40) 6.67 (21:00) 0 0 0 0 0
11-05-2018 21.1 (15:20) 17.6 (06:50) 19.4 11.67 (13:20) 6.11 (12:00) 0 0 0 0 0
10-05-2018 23.2 (15:30) 18.7 (00:00) 21 8.61 (07:20) 5.28 (00:10) 0 0 0 0 0
09-05-2018 22.3 (15:00) 18.4 (00:00) 20.3 8.33 (23:50) 5.28 (21:30) 0 0 0 0 0
08-05-2018 23 (15:30) 17.7 (00:00) 20.4 6.94 (03:50) 5 (19:50) 0 0 0 0 0
07-05-2018 21.6 (17:50) 18 (00:00) 19.8 6.39 (13:50) 4.17 (08:00) 0 0 0 0 0
06-05-2018 22.8 (16:00) 16.6 (00:00) 19.7 8.61 (08:10) 5.83 (08:20) 0 0 0 0 0
05-05-2018 22.3 (16:00) 16 (00:00) 19.1 6.67 (10:30) 3.89 (13:30) 0 0 0 0 0
04-05-2018 20.7 (16:40) 17.3 (00:00) 19 7.5 (09:40) 4.72 (17:50) 0 0 0 0 0
03-05-2018 22.9 (15:20) 17.1 (00:00) 20 7.22 (06:20) 5 (03:00) 0.4 0 0.4 0 0
02-05-2018 23.3 (12:50) 17.4 (00:00) 20.3 6.67 (17:30) 4.72 (18:30) 0 0 0 0 0
01-05-2018 22.6 (13:50) 16.8 (01:20) 19.7 8.61 (06:50) 5 (19:50) 0 0 0 0 0
30-04-2018 21.9 (15:40) 17.1 (00:00) 19.5 7.5 (07:30) 5.28 (07:30) 0 0 0 0 0
29-04-2018 21 (12:00) 17.6 (00:00) 19.3 10 (16:40) 6.67 (17:00) 0 0 0 0 0
28-04-2018 22.4 (18:30) 16 (00:00) 19.2 9.44 (12:20) 5.83 (23:00) 0 0 0 0 0
27-04-2018 20.1 (15:40) 17.5 (00:00) 18.8 10 (12:40) 6.11 (12:40) 0 0 0 0 0
26-04-2018 20.8 (14:30) 17.8 (00:00) 19.3 12.22 (17:20) 6.11 (21:40) 0 0 0 0 0
25-04-2018 21.6 (14:20) 17.2 (00:00) 19.4 10 (12:30) 5.83 (14:50) 0 0 0 0 0

Gráficas

Temp. máximas Temp. mínimas Temp. medias Precipitaciones Rachas de viento máximas Velocidades máximas media en intervalos de 10 minutos

Datos horarios

Fecha y hora oficial Temperatura (ºC) Velocidad del viento (km/h) Dirección del viento Racha (km/h) Dirección de racha Precipitación (mm) Presión (hPa) Tendencia (hPa) Humedad (%)
2018-05-24 23:00:00 19.3 10 Nordeste 18 Nordeste 0 -- -- 76
2018-05-24 22:00:00 19.4 12 Nordeste 17 Nordeste 0 -- -- 75
2018-05-24 21:00:00 19.7 12 Nordeste 21 Nordeste 0 -- -- 75
2018-05-24 20:00:00 20.1 12 Norte 24 Norte 0 -- -- 72
2018-05-24 19:00:00 20.1 13 Nordeste 22 Norte 0 -- -- 73
2018-05-24 18:00:00 20.3 15 Norte 24 Norte 0 -- -- 72
2018-05-24 17:00:00 20.7 11 Norte 18 Norte 0 -- -- 69
2018-05-24 16:00:00 21.1 10 Norte 15 Norte 0 -- -- 68
2018-05-24 15:00:00 21.1 8 Nordeste 21 Norte 0 -- -- 64
2018-05-24 14:00:00 20.4 12 Norte 20 Nordeste 0 -- -- 68
2018-05-24 13:00:00 20.6 14 Norte 20 Norte 0 -- -- 65
2018-05-24 12:00:00 20 14 Norte 22 Norte 0 -- -- 71
2018-05-24 11:00:00 19.3 10 Norte 17 Sudeste 0 -- -- 73
2018-05-24 10:00:00 18 10 Sudeste 28 Sudeste 0 -- -- 77
2018-05-24 09:00:00 18.3 8 Norte 28 Norte 0 -- -- 72
2018-05-24 08:00:00 18.2 3 Este 26 Noroeste 0 -- -- 73
2018-05-24 07:00:00 18.5 15 Noroeste 29 Norte 0 -- -- 75
2018-05-24 06:00:00 18.8 10 Norte 18 Norte 0 -- -- 73
2018-05-24 05:00:00 18.6 12 Nordeste 20 Nordeste 0 -- -- 72
2018-05-24 04:00:00 18.6 10 Norte 18 Norte 0 -- -- 70
2018-05-24 03:00:00 18.6 10 Norte 20 Norte 0 -- -- 69
2018-05-24 02:00:00 18.7 10 Norte 20 Nordeste 0 -- -- 68
2018-05-24 01:00:00 18.8 10 Nordeste 22 Norte 0 -- -- 65
2018-05-24 00:00:00 18.9 11 Norte 19 Norte 0 -- -- 67
2018-05-23 23:00:00 18.9 12 Norte 22 Norte 0 -- -- 67
2018-05-23 22:00:00 19.1 13 Norte 20 Norte 0 -- -- 68
2018-05-23 21:00:00 19.3 9 Norte 18 Norte 0 -- -- 66
2018-05-23 20:00:00 20.3 10 Norte 23 Este 0 -- -- 61
2018-05-23 19:00:00 20.4 10 Nordeste 17 Nordeste 0 -- -- 58
2018-05-23 18:00:00 21.5 10 Norte 19 Norte 0 -- -- 53
2018-05-23 17:00:00 22.1 13 Norte 18 Norte 0 -- -- 52
2018-05-23 16:00:00 21.6 9 Norte 20 Norte 0 -- -- 56
2018-05-23 15:00:00 21.3 10 Norte 19 Norte 0 -- -- 57
2018-05-23 14:00:00 20.5 14 Norte 23 Norte 0 -- -- 62
2018-05-23 13:00:00 22.2 12 Norte 18 Norte 0 -- -- 59
2018-05-23 12:00:00 22.3 9 Norte 18 Norte 0 -- -- 54
2018-05-23 11:00:00 20.3 10 Norte 18 Norte 0 -- -- 59
2018-05-23 10:00:00 19.6 11 Nordeste 19 Nordeste 0 -- -- 64
2018-05-23 09:00:00 18.9 12 Norte 24 Norte 0 -- -- 66
2018-05-23 08:00:00 18.7 10 Norte 19 Nordeste 0 -- -- 71
2018-05-23 07:00:00 18.6 10 Norte 22 Norte 0 -- -- 71
2018-05-23 06:00:00 18.5 16 Norte 25 Noroeste 0 -- -- 70
2018-05-23 05:00:00 18.7 21 Noroeste 28 Noroeste 0 -- -- 74
2018-05-23 04:00:00 18.6 7 Norte 14 Norte 0 -- -- 73
2018-05-23 03:00:00 18.9 11 Norte 18 Norte 0 -- -- 75
2018-05-23 02:00:00 19.2 9 Nordeste 15 Norte 0 -- -- 77
2018-05-23 01:00:00 19.4 9 Nordeste 15 Norte 0 -- -- 78
2018-05-23 00:00:00 19.6 9 Norte 15 Norte 0 -- -- 77
2018-05-22 23:00:00 19.9 9 Nordeste 15 Este 0 -- -- 78
2018-05-22 22:00:00 20.3 11 Nordeste 16 Nordeste 0 -- -- 78
2018-05-22 21:00:00 20.8 7 Norte 12 Nordeste 0 -- -- 77
2018-05-22 20:00:00 21.4 5 Nordeste 10 Nordeste 0 -- -- 73
2018-05-22 19:00:00 21.8 7 Norte 12 Norte 0 -- -- 74
2018-05-22 18:00:00 23 8 Norte 14 Norte 0 -- -- 69
2018-05-22 17:00:00 23.3 6 Norte 13 Nordeste 0 -- -- 66
2018-05-22 16:00:00 23.2 5 Nordeste 12 Nordeste 0 -- -- 67
2018-05-22 15:00:00 21.3 3 Nordeste 6 Nordeste 0 -- -- 74
2018-05-22 14:00:00 21.2 2 Norte 11 Norte 0 -- -- 73
2018-05-22 13:00:00 21.4 5 Nordeste 12 Sudoeste 0 -- -- 74
2018-05-22 12:00:00 21.4 4 Nordeste 9 Norte 0 -- -- 71
2018-05-22 11:00:00 22.3 6 Norte 13 Este 0 -- -- 64
2018-05-22 10:00:00 21.8 9 Nordeste 15 Nordeste 0 -- -- 66
2018-05-22 09:00:00 20.7 8 Este 15 Este 0 -- -- 69
2018-05-22 08:00:00 18 4 Este 14 Sur 0 -- -- 73
2018-05-22 07:00:00 17 8 Sur 11 Sur 0 -- -- 78
2018-05-22 06:00:00 17.6 8 Sur 12 Sudeste 0 -- -- 76
2018-05-22 05:00:00 17.8 7 Sudeste 10 Sudeste 0 -- -- 75
2018-05-22 04:00:00 18.7 7 Sudeste 14 Sudeste 0 -- -- 72
2018-05-22 03:00:00 18.8 6 Sudeste 12 Este 0 -- -- 73
2018-05-22 02:00:00 19.4 7 Nordeste 15 Nordeste 0 -- -- 74
2018-05-22 01:00:00 19.4 7 Nordeste 15 Nordeste 0 -- -- 73
2018-05-22 00:00:00 19.4 9 Nordeste 14 Nordeste 0 -- -- 73
2018-05-21 23:00:00 19.7 8 Nordeste 13 Nordeste 0 -- -- 71
2018-05-21 22:00:00 19.8 8 Este 15 Nordeste 0 -- -- 70
2018-05-21 21:00:00 20.1 8 Nordeste 18 Norte 0 -- -- 69
2018-05-21 20:00:00 20.9 8 Norte 15 Norte 0 -- -- 68
2018-05-21 19:00:00 21.1 8 Norte 14 Norte 0 -- -- 65
2018-05-21 18:00:00 22.1 7 Nordeste 12 Nordeste 0 -- -- 56
2018-05-21 17:00:00 23.2 8 Nordeste 12 Nordeste 0 -- -- 52
2018-05-21 16:00:00 23.2 7 Nordeste 13 Este 0 -- -- 52
2018-05-21 15:00:00 23.6 8 Nordeste 16 Nordeste 0 -- -- 57
2018-05-21 14:00:00 22.6 6 Norte 10 Nordeste 0 -- -- 57
2018-05-21 13:00:00 22.1 7 Nordeste 18 Nordeste 0 -- -- 57
2018-05-21 12:00:00 21.5 12 Este 19 Este 0 -- -- 60
2018-05-21 11:00:00 22 14 Este 23 Nordeste 0 -- -- 57
2018-05-21 10:00:00 20.2 12 Este 19 Este 0 -- -- 62
2018-05-21 09:00:00 19.1 11 Nordeste 18 Nordeste 0 -- -- 68
2018-05-21 08:00:00 18.8 12 Nordeste 21 Norte 0 -- -- 67
2018-05-21 07:00:00 18.9 12 Norte 22 Este 0 -- -- 70
2018-05-21 06:00:00 18.3 8 Este 16 Sudeste 0 -- -- 70
2018-05-21 05:00:00 18.4 9 Este 15 Nordeste 0 -- -- 72
2018-05-21 04:00:00 18.7 9 Nordeste 22 Norte 0 -- -- 72
2018-05-21 03:00:00 18.7 6 Norte 14 Nordeste 0 -- -- 72
2018-05-21 02:00:00 18.8 10 Norte 19 Norte 0 -- -- 70
2018-05-21 01:00:00 18.9 10 Este 16 Nordeste 0 -- -- 69
2018-05-21 00:00:00 19 10 Nordeste 23 Nordeste 0 -- -- 68
2018-05-20 23:00:00 19.1 11 Nordeste 19 Nordeste 0 -- -- 70
2018-05-20 22:00:00 19.3 9 Nordeste 14 Nordeste 0 -- -- 67
2018-05-20 21:00:00 19.7 11 Nordeste 15 Nordeste 0 -- -- 67
2018-05-20 20:00:00 20.5 9 Nordeste 13 Este 0 -- -- 60
2018-05-20 19:00:00 20.9 9 Nordeste 15 Nordeste 0 -- -- 59
2018-05-20 18:00:00 22.2 7 Nordeste 13 Nordeste 0 -- -- 53
2018-05-20 17:00:00 22.8 9 Nordeste 14 Norte 0 -- -- 49
2018-05-20 16:00:00 22.9 9 Nordeste 14 Nordeste 0 -- -- 45
2018-05-20 15:00:00 22.9 10 Nordeste 17 Nordeste 0 -- -- 46
2018-05-20 14:00:00 22.9 13 Este 22 Nordeste 0 -- -- 46
2018-05-20 13:00:00 22.5 18 Nordeste 25 Nordeste 0 -- -- 51
2018-05-20 12:00:00 21.2 16 Nordeste 26 Nordeste 0 -- -- 54
2018-05-20 11:00:00 20.2 14 Nordeste 24 Nordeste 0 -- -- 59
2018-05-20 10:00:00 19.3 15 Nordeste 23 Este 0 -- -- 63
2018-05-20 09:00:00 19 17 Este 26 Este 0 -- -- 61
2018-05-20 08:00:00 18.4 9 Este 20 Sudeste 0 -- -- 65
2018-05-20 07:00:00 17.8 9 Sudeste 27 Este 0 -- -- 56
2018-05-20 06:00:00 18.3 18 Este 30 Este 0 -- -- 58
2018-05-20 05:00:00 18.2 11 Este 27 Este 0 -- -- 63
2018-05-20 04:00:00 18.2 7 Sudeste 26 Nordeste 0 -- -- 60
2018-05-20 03:00:00 18.8 16 Nordeste 31 Nordeste 0 -- -- 64
2018-05-20 02:00:00 18.9 14 Nordeste 30 Este 0 -- -- 66
2018-05-20 01:00:00 19 14 Nordeste 31 Nordeste 0 -- -- 66
2018-05-20 00:00:00 19.1 13 Nordeste 25 Este 0 -- -- 72
2018-05-19 23:00:00 19 13 Nordeste 22 Nordeste 0 -- -- 72
2018-05-19 22:00:00 19.1 13 Nordeste 25 Nordeste 0 -- -- 75
2018-05-19 21:00:00 19.5 13 Nordeste 24 Este 0 -- -- 74
2018-05-19 20:00:00 21 12 Este 24 Nordeste 0 -- -- 63
2018-05-19 19:00:00 21.2 14 Nordeste 24 Nordeste 0 -- -- 67
2018-05-19 18:00:00 21.7 12 Nordeste 27 Nordeste 0 -- -- 60
2018-05-19 17:00:00 21.7 17 Nordeste 26 Nordeste 0 -- -- 64
2018-05-19 16:00:00 22.5 12 Nordeste 21 Nordeste 0 -- -- 62
2018-05-19 15:00:00 21.3 9 Este 18 Este 0 -- -- 66
2018-05-19 14:00:00 21.1 12 Este 20 Este 0 -- -- 65
2018-05-19 13:00:00 20.7 12 Nordeste 21 Este 0 -- -- 68
2018-05-19 12:00:00 20.7 12 Nordeste 24 Este 0 -- -- 68
2018-05-19 11:00:00 20.4 12 Este 21 Este 0 -- -- 67
2018-05-19 10:00:00 19.3 14 Nordeste 21 Este 0 -- -- 71
2018-05-19 09:00:00 19.1 10 Este 22 Nordeste 0 -- -- 71
2018-05-19 08:00:00 18.7 15 Este 26 Nordeste 0 -- -- 71
2018-05-19 07:00:00 18.3 10 Sudeste 21 Sudeste 0 -- -- 66
2018-05-19 06:00:00 18.5 10 Este 23 Este 0 -- -- 70
2018-05-19 05:00:00 18.2 9 Sudeste 23 Este 0 -- -- 65
2018-05-19 04:00:00 18.1 8 Este 21 Este 0 -- -- 69
2018-05-19 03:00:00 18.1 8 Este 26 Nordeste 0 -- -- 68
2018-05-19 02:00:00 18.8 14 Este 23 Este 0 -- -- 68
2018-05-19 01:00:00 18.8 12 Este 26 Este 0 -- -- 67
2018-05-19 00:00:00 18.8 12 Este 23 Nordeste 0 -- -- 70
2018-05-18 23:00:00 18.9 11 Este 22 Este 0 -- -- 73
2018-05-18 22:00:00 19.1 12 Este 23 Nordeste 0 -- -- 73
2018-05-18 21:00:00 19.6 13 Nordeste 20 Nordeste 0 -- -- 72
2018-05-18 20:00:00 -- -- -- -- -- -- -- -- --
2018-05-18 19:00:00 21.8 13 Este 22 Nordeste 0 -- -- 62
2018-05-18 18:00:00 21.7 15 Nordeste 29 Nordeste 0 -- -- 64
2018-05-18 17:00:00 22.4 18 Nordeste 25 Nordeste 0 -- -- 58
2018-05-18 16:00:00 21.8 13 Nordeste 21 Nordeste 0 -- -- 60
2018-05-18 15:00:00 21.9 13 Nordeste 20 Nordeste 0 -- -- 62
2018-05-18 14:00:00 21.4 9 Este 21 Nordeste 0 -- -- 65
2018-05-18 13:00:00 21.1 13 Nordeste 30 Nordeste 0 -- -- 68
2018-05-18 12:00:00 20.2 15 Nordeste 26 Nordeste 0 -- -- 73
2018-05-18 11:00:00 20.6 14 Nordeste 21 Este 0 -- -- 63
2018-05-18 10:00:00 20.5 13 Este 20 Nordeste 0 -- -- 67
2018-05-18 09:00:00 18.5 9 Este 29 Nordeste 0 -- -- 69
2018-05-18 08:00:00 18.2 12 Sudeste 23 Sudeste 0 -- -- 69
2018-05-18 07:00:00 18.6 13 Este 18 Nordeste 0 -- -- 78
2018-05-18 06:00:00 18.4 10 Nordeste 18 Este 0 -- -- 76
2018-05-18 05:00:00 18.1 5 Este 22 Nordeste 0 -- -- 74
2018-05-18 04:00:00 18.3 13 Este 22 Este 0 -- -- 78
2018-05-18 03:00:00 18.1 14 Este 25 Nordeste 0 -- -- 76
2018-05-18 02:00:00 18.3 13 Este 25 Nordeste 0 -- -- 81
2018-05-18 01:00:00 18.5 11 Nordeste 22 Nordeste 0 -- -- 78
2018-05-18 00:00:00 18.6 15 Este 24 Nordeste 0 -- -- 79
2018-05-17 23:00:00 18.6 9 Este 21 Este 0 -- -- 77
2018-05-17 22:00:00 18.9 13 Este 21 Nordeste 0 -- -- 77
2018-05-17 21:00:00 19.2 13 Nordeste 23 Nordeste 0 -- -- 75
2018-05-17 20:00:00 20.1 8 Este 16 Este 0 -- -- 69
2018-05-17 19:00:00 20.5 9 Este 18 Este 0 -- -- 68
2018-05-17 18:00:00 21.1 15 Este 21 Nordeste 0 -- -- 66
2018-05-17 17:00:00 21.6 14 Nordeste 22 Nordeste 0 -- -- 66
2018-05-17 16:00:00 22.1 18 Nordeste 36 Nordeste 0 -- -- 60
2018-05-17 15:00:00 22.4 19 Nordeste 27 Nordeste 0 -- -- 57
2018-05-17 14:00:00 21.6 18 Nordeste 25 Nordeste 0 -- -- 58
2018-05-17 13:00:00 21.3 16 Nordeste 25 Nordeste 0 -- -- 59
2018-05-17 12:00:00 21.4 11 Este 23 Este 0 -- -- 60
2018-05-17 11:00:00 20.4 9 Este 23 Nordeste 0 -- -- 61
2018-05-17 10:00:00 19.8 14 Nordeste 26 Este 0 -- -- 63
2018-05-17 09:00:00 18.8 10 Este 21 Este 0 -- -- 64
2018-05-17 08:00:00 18.4 14 Este 30 Nordeste 0 -- -- 69
2018-05-17 07:00:00 18.6 13 Este 25 Nordeste 0 -- -- 64
2018-05-17 06:00:00 18.5 13 Este 26 Nordeste 0 -- -- 64
2018-05-17 05:00:00 18.7 13 Este 23 Nordeste 0 -- -- 68
2018-05-17 04:00:00 18.4 12 Este 35 Este 0 -- -- 62
2018-05-17 03:00:00 18.7 10 Este 27 Nordeste 0 -- -- 66
2018-05-17 02:00:00 18.8 16 Nordeste 29 Este 0 -- -- 69
2018-05-17 01:00:00 18.5 21 Este 32 Nordeste 0 -- -- 70
2018-05-17 00:00:00 18.9 15 Nordeste 29 Nordeste 0 -- -- 76
2018-05-16 23:00:00 19 13 Este 26 Este 0 -- -- 74
2018-05-16 22:00:00 18.8 12 Este 28 Este 0 -- -- 71
2018-05-16 21:00:00 19.3 15 Nordeste 26 Nordeste 0 -- -- 76
2018-05-16 20:00:00 19.6 16 Este 30 Nordeste 0 -- -- 71
2018-05-16 19:00:00 20 15 Este 26 Este 0 -- -- 68
2018-05-16 18:00:00 20.6 13 Nordeste 20 Nordeste 0 -- -- 70
2018-05-16 17:00:00 20.2 10 Este 22 Nordeste 0 -- -- 70
2018-05-16 16:00:00 20.8 17 Nordeste 30 Nordeste 0 -- -- 67
2018-05-16 15:00:00 22.9 19 Este 29 Este 0 -- -- 61
2018-05-16 14:00:00 21.5 18 Este 27 Este 0 -- -- 65
2018-05-16 13:00:00 20.7 19 Este 31 Nordeste 0 -- -- 66
2018-05-16 12:00:00 20.6 20 Nordeste 29 Este 0 -- -- 71
2018-05-16 11:00:00 20.2 12 Nordeste 27 Nordeste 0 -- -- 69
2018-05-16 10:00:00 19.6 13 Este 27 Este 0 -- -- 73
2018-05-16 09:00:00 19.5 14 Nordeste 21 Norte 0 -- -- 73
2018-05-16 08:00:00 19 13 Nordeste 33 Sudeste 0 -- -- 73
2018-05-16 07:00:00 18.3 22 Sudeste 38 Este 0 -- -- 70
2018-05-16 06:00:00 18.7 12 Este 26 Sudeste 0 -- -- 76
2018-05-16 05:00:00 18.5 13 Este 32 Sudeste 0 -- -- 71
2018-05-16 04:00:00 18.2 18 Sudeste 27 Sudeste 0 -- -- 68
2018-05-16 03:00:00 18 15 Sudeste 23 Sudeste 0 -- -- 69
2018-05-16 02:00:00 18.2 14 Sudeste 33 Este 0 -- -- 78
2018-05-16 01:00:00 19 20 Nordeste 31 Nordeste 0 -- -- 73
2018-05-16 00:00:00 18.9 15 Este 28 Nordeste 0 -- -- 72
2018-05-15 23:00:00 19 17 Este 30 Nordeste 0 -- -- 72
2018-05-15 22:00:00 19 19 Este 33 Este 0 -- -- 74
2018-05-15 21:00:00 19.3 15 Este 30 Este 0 -- -- 74
2018-05-15 20:00:00 20.3 18 Nordeste 30 Nordeste 0 -- -- 73
2018-05-15 19:00:00 21.2 19 Este 31 Nordeste 0 -- -- 70
2018-05-15 18:00:00 21.4 19 Nordeste 29 Este 0 -- -- 67
2018-05-15 17:00:00 22.4 12 Este 22 Este 0 -- -- 66
2018-05-15 16:00:00 22.5 14 Este 22 Este 0 -- -- 64
2018-05-15 15:00:00 22.1 13 Este 22 Este 0 -- -- 60
2018-05-15 14:00:00 20.9 15 Este 26 Este 0 -- -- 68
2018-05-15 13:00:00 20.3 15 Este 26 Nordeste 0 -- -- 69
2018-05-15 12:00:00 20.3 10 Este 25 Nordeste 0 -- -- 71
2018-05-15 11:00:00 20 12 Nordeste 22 Este 0 -- -- 70
2018-05-15 10:00:00 19.1 15 Este 30 Este 0 -- -- 72
2018-05-15 09:00:00 18.5 8 Este 22 Nordeste 0 -- -- 72
2018-05-15 08:00:00 17.7 9 Sudeste 24 Nordeste 0 -- -- 70
2018-05-15 07:00:00 17.8 6 Sudeste 23 Nordeste 0 -- -- 72
2018-05-15 06:00:00 18.2 15 Nordeste 28 Nordeste 0 -- -- 75
2018-05-15 05:00:00 18.3 17 Nordeste 35 Nordeste 0 -- -- 76
2018-05-15 04:00:00 18.4 21 Nordeste 34 Este 0 -- -- 76
2018-05-15 03:00:00 18.4 15 Nordeste 35 Nordeste 0 -- -- 75
2018-05-15 02:00:00 18.4 18 Este 28 Nordeste 0 -- -- 75
2018-05-15 01:00:00 17.7 10 Sudeste 24 Este 0 -- -- 69
2018-05-15 00:00:00 17.9 11 Sudeste 30 Nordeste 0 -- -- 70
2018-05-14 23:00:00 18.4 15 Este 31 Nordeste 0 -- -- 72
2018-05-14 22:00:00 18.6 19 Este 31 Nordeste 0 -- -- 71
2018-05-14 21:00:00 18.8 17 Este 33 Nordeste 0 -- -- 71
2018-05-14 20:00:00 19.5 20 Este 32 Este 0 -- -- 69
2018-05-14 19:00:00 19.5 17 Nordeste 31 Nordeste 0 -- -- 69
2018-05-14 18:00:00 19.4 19 Nordeste 27 Nordeste 0 -- -- 69
2018-05-14 17:00:00 19.4 14 Nordeste 37 Nordeste 0 -- -- 69
2018-05-14 16:00:00 19.4 18 Nordeste 40 Nordeste 0 -- -- 71
2018-05-14 15:00:00 19.6 18 Nordeste 40 Este 0 -- -- 68
2018-05-14 14:00:00 19.6 18 Nordeste 43 Nordeste 0 -- -- 70
2018-05-14 13:00:00 19.4 17 Nordeste 39 Nordeste 0 -- -- 67
2018-05-14 12:00:00 19.2 18 Nordeste 41 Nordeste 0 -- -- 72
2018-05-14 11:00:00 18.8 24 Nordeste 43 Nordeste 0 -- -- 70
2018-05-14 10:00:00 19.2 22 Nordeste 34 Nordeste 0 -- -- 68
2018-05-14 09:00:00 18.4 19 Nordeste 35 Nordeste 0 -- -- 71
2018-05-14 08:00:00 18 14 Este 33 Nordeste 0 -- -- 69
2018-05-14 07:00:00 17.9 18 Nordeste 34 Nordeste 0 -- -- 74
2018-05-14 06:00:00 18 18 Nordeste 32 Nordeste 0 -- -- 74
2018-05-14 05:00:00 17.9 18 Este 35 Nordeste 0 -- -- 72
2018-05-14 04:00:00 17.9 20 Nordeste 37 Nordeste 0 -- -- 72
2018-05-14 03:00:00 18 19 Este 40 Nordeste 0 -- -- 72
2018-05-14 02:00:00 18.1 20 Nordeste 37 Este 0 -- -- 74
2018-05-14 01:00:00 18.2 21 Nordeste 36 Nordeste 0 -- -- 74
2018-05-14 00:00:00 18.6 17 Nordeste 44 Este 0 -- -- 74
2018-05-11 19:00:00 -- -- -- -- -- -- -- -- --
2018-05-11 18:00:00 -- -- -- -- -- -- -- -- --
2018-05-11 17:00:00 -- -- -- -- -- -- -- -- --
2018-05-11 16:00:00 -- -- -- -- -- -- -- -- --
2018-05-11 15:00:00 20.5 18 Nordeste 32 Nordeste 0 -- -- 65
2018-05-11 14:00:00 20.4 14 Nordeste 42 Nordeste 0 -- -- 68
2018-05-11 13:00:00 20.1 20 Nordeste 38 Nordeste 0 -- -- 67
2018-05-11 12:00:00 20 22 Nordeste 38 Nordeste 0 -- -- 69
2018-05-11 11:00:00 19.9 19 Nordeste 32 Nordeste 0 -- -- 66
2018-05-11 10:00:00 19.5 21 Nordeste 32 Nordeste 0 -- -- 68
2018-05-11 09:00:00 18.5 17 Este 31 Este 0 -- -- 69
2018-05-11 08:00:00 18.3 20 Nordeste 31 Nordeste 0 -- -- 70
2018-05-11 07:00:00 17.6 9 Sudeste 23 Sudeste 0 -- -- 67
2018-05-11 06:00:00 17.8 9 Sudeste 31 Este 0 -- -- 68
2018-05-11 05:00:00 18.1 19 Este 31 Este 0 -- -- 70
2018-05-11 04:00:00 18.2 12 Este 27 Este 0 -- -- 70
2018-05-11 03:00:00 18.6 14 Este 34 Este 0 -- -- 74
2018-05-11 02:00:00 18.8 17 Este 30 Este 0 -- -- 76
2018-05-11 01:00:00 19.3 16 Nordeste 26 Nordeste 0 -- -- 78
2018-05-11 00:00:00 19.5 12 Este 23 Sudeste 0 -- -- 77
2018-05-10 23:00:00 19.5 10 Este 21 Nordeste 0 -- -- 77
2018-05-10 22:00:00 19.4 15 Nordeste 21 Este 0 -- -- 78
2018-05-10 21:00:00 19.6 11 Nordeste 19 Nordeste 0 -- -- 75
2018-05-10 20:00:00 20.2 8 Este 16 Este 0 -- -- 73
2018-05-10 19:00:00 20.8 13 Este 22 Nordeste 0 -- -- 70
2018-05-10 18:00:00 21.1 18 Nordeste 24 Nordeste 0 -- -- 70
2018-05-10 17:00:00 22.9 12 Nordeste 26 Nordeste 0 -- -- 62
2018-05-10 16:00:00 22.6 19 Nordeste 29 Nordeste 0 -- -- 60
2018-05-10 15:00:00 22.9 14 Nordeste 27 Nordeste 0 -- -- 59
2018-05-10 14:00:00 22.7 15 Nordeste 27 Nordeste 0 -- -- 59
2018-05-10 13:00:00 22 15 Este 26 Este 0 -- -- 60
2018-05-10 12:00:00 20.3 17 Este 29 Este -- -- -- 63
2018-05-10 11:00:00 19.7 14 Nordeste 30 Este 0 -- -- 70
2018-05-10 10:00:00 19.8 15 Este 26 Nordeste 0 -- -- 67
2018-05-10 09:00:00 19 17 Este 27 Este 0 -- -- 70
2018-05-10 08:00:00 19 18 Nordeste 31 Este 0 -- -- 75
2018-05-10 07:00:00 18.9 14 Este 24 Nordeste 0 -- -- 75
2018-05-10 06:00:00 18.9 9 Este 27 Este 0 -- -- 71
2018-05-10 05:00:00 19 17 Este 29 Nordeste 0 -- -- 75
2018-05-10 04:00:00 19 14 Este 28 Nordeste 0 -- -- 73
2018-05-10 03:00:00 19 17 Nordeste 29 Este 0 -- -- 75
2018-05-10 02:00:00 19.2 17 Este 27 Este 0 -- -- 77
2018-05-10 01:00:00 19.2 18 Este 28 Este 0 -- -- 77
2018-05-10 00:00:00 19.4 15 Este 30 Este 0 -- -- 77
2018-05-09 23:00:00 19.4 14 Este 27 Este 0 -- -- 76
2018-05-09 22:00:00 19.3 19 Este 30 Este 0 -- -- 76
2018-05-09 21:00:00 19.6 13 Este 25 Sudeste 0 -- -- 73
2018-05-09 20:00:00 20.2 12 Este 25 Este 0 -- -- 70
2018-05-09 19:00:00 20.4 18 Este 26 Este 0 -- -- 71
2018-05-09 18:00:00 21.6 17 Este 27 Nordeste 0 -- -- 65
2018-05-09 17:00:00 22.1 15 Nordeste 30 Nordeste 0 -- -- 60
2018-05-09 16:00:00 21.3 11 Nordeste 22 Nordeste 0 -- -- 67
2018-05-09 15:00:00 22.3 15 Este 25 Nordeste 0 -- -- 56
2018-05-09 14:00:00 21.9 15 Nordeste 24 Nordeste 0 -- -- 59
2018-05-09 13:00:00 21.1 12 Este 24 Nordeste 0 -- -- 65
2018-05-09 12:00:00 21.2 15 Nordeste 23 Este 0 -- -- 67
2018-05-09 11:00:00 21 15 Este 30 Nordeste 0 -- -- 57
2018-05-09 10:00:00 20.6 18 Nordeste 26 Este 0 -- -- 63
2018-05-09 09:00:00 19.2 7 Este 13 Este 0 -- -- 69
2018-05-09 08:00:00 18.7 6 Sudeste 18 Nordeste 0 -- -- 70
2018-05-09 07:00:00 18.8 12 Este 24 Este 0 -- -- 73
2018-05-09 06:00:00 18.8 12 Este 22 Nordeste 0 -- -- 73
2018-05-09 05:00:00 18.5 6 Sudeste 22 Este 0 -- -- 73
2018-05-09 04:00:00 18.6 8 Este 22 Este 0 -- -- 76
2018-05-09 03:00:00 18.8 13 Este 26 Este 0 -- -- 75
2018-05-09 02:00:00 19 9 Este 22 Este 0 -- -- 72
2018-05-09 01:00:00 19.1 10 Este 21 Nordeste 0 -- -- 75
2018-05-09 00:00:00 19.2 12 Nordeste 21 Este 0 -- -- 76
2018-05-08 23:00:00 19.2 13 Nordeste 23 Nordeste 0 -- -- 75
2018-05-08 22:00:00 19.3 14 Nordeste 23 Nordeste 0 -- -- 75
2018-05-08 21:00:00 19.5 13 Nordeste 23 Nordeste 0 -- -- 75
2018-05-08 20:00:00 19.9 14 Nordeste 24 Nordeste 0 -- -- 75
2018-05-08 19:00:00 20.4 12 Nordeste 20 Nordeste 0 -- -- 74
2018-05-08 18:00:00 21 10 Nordeste 22 Nordeste 0 -- -- 70
2018-05-08 17:00:00 21.8 12 Nordeste 21 Nordeste 0 -- -- 70
2018-05-08 16:00:00 22.7 11 Este 16 Nordeste 0 -- -- 63
2018-05-08 15:00:00 22.5 11 Este 16 Este 0 -- -- 64
2018-05-08 14:00:00 21.4 13 Este 22 Nordeste 0 -- -- 67
2018-05-08 13:00:00 20.3 15 Nordeste 21 Nordeste 0 -- -- 72
2018-05-08 12:00:00 20.2 11 Nordeste 22 Nordeste 0 -- -- 73
2018-05-08 11:00:00 19.8 13 Nordeste 24 Este 0 -- -- 74
2018-05-08 10:00:00 19.5 15 Nordeste 25 Este 0 -- -- 75
2018-05-08 09:00:00 18.8 11 Este 18 Este 0 -- -- 75
2018-05-08 08:00:00 18 10 Sudeste 15 Este 0 -- -- 73
2018-05-08 07:00:00 18.1 6 Este 19 Este 0 -- -- 75
2018-05-08 06:00:00 18.3 10 Nordeste 18 Este 0 -- -- 74
2018-05-08 05:00:00 18.4 12 Este 22 Este 0 -- -- 73
2018-05-08 04:00:00 18.7 12 Este 25 Este 0 -- -- 74
2018-05-08 03:00:00 18.7 10 Este 20 Este 0 -- -- 74
2018-05-08 02:00:00 18.7 10 Este 21 Este 0 -- -- 74
2018-05-08 01:00:00 18.7 10 Este 20 Este 0 -- -- 73
2018-05-08 00:00:00 18.9 12 Este 21 Este 0 -- -- 73
2018-05-07 23:00:00 19 14 Nordeste 21 Este 0 -- -- 74
2018-05-07 22:00:00 19.2 12 Este 18 Este 0 -- -- 73
2018-05-07 21:00:00 19.4 -- -- -- -- 0 -- -- 68
2018-05-07 20:00:00 20 10 Nordeste 17 Nordeste 0 -- -- 68
2018-05-07 19:00:00 21.1 8 Nordeste 14 Nordeste 0 -- -- 61
2018-05-07 18:00:00 21.3 10 Nordeste 19 Nordeste 0 -- -- 61
2018-05-07 17:00:00 20.6 11 Este 15 Este 0 -- -- 63
2018-05-07 16:00:00 20.3 10 Nordeste 19 Nordeste 0 -- -- 61
2018-05-07 15:00:00 20.1 9 Norte 18 Norte 0 -- -- 66
2018-05-07 14:00:00 20 10 Norte 23 Norte 0 -- -- 66
2018-05-07 13:00:00 20.1 10 Norte 17 Norte 0 -- -- 65
2018-05-07 12:00:00 20 10 Norte 18 Norte 0 -- -- 65
2018-05-07 11:00:00 19.8 9 Nordeste 18 Norte 0 -- -- 67
2018-05-07 10:00:00 19.1 13 Norte 18 Norte 0 -- -- 67
2018-05-07 09:00:00 18.8 8 Norte 14 Norte 0 -- -- 71
2018-05-07 08:00:00 18.5 15 Norte 21 Norte 0 -- -- 75
2018-05-07 07:00:00 18.4 6 Nordeste 14 Norte 0 -- -- 71
2018-05-07 06:00:00 18.3 6 Nordeste 14 Norte 0 -- -- 72
2018-05-07 05:00:00 18.5 9 Norte 19 Noroeste 0 -- -- 72
2018-05-07 04:00:00 18.6 9 Norte 19 Norte 0 -- -- 73
2018-05-07 03:00:00 18.7 8 Norte 14 Nordeste 0 -- -- 72
2018-05-07 02:00:00 18.6 7 Norte 12 Norte 0 -- -- 72
2018-05-07 01:00:00 18.5 7 Nordeste 16 Nordeste 0 -- -- 71
2018-05-07 00:00:00 18.8 8 Nordeste 15 Norte 0 -- -- 71
2018-05-06 23:00:00 18.8 6 Norte 21 Norte 0 -- -- 72
2018-05-06 22:00:00 19 10 Norte 17 Noroeste 0 -- -- 74
2018-05-06 21:00:00 19.3 10 Norte 17 Noroeste 0 -- -- 71
2018-05-06 20:00:00 19.8 8 Norte 16 Noroeste 0 -- -- 68
2018-05-06 19:00:00 20.3 10 Norte 15 Norte 0 -- -- 65
2018-05-06 18:00:00 20.6 6 Nordeste 15 Norte 0 -- -- 63
2018-05-06 17:00:00 21.1 9 Norte 14 Norte 0 -- -- 61
2018-05-06 16:00:00 22.8 9 Noroeste 14 Noroeste 0 -- -- 54
2018-05-06 15:00:00 22 6 Norte 14 Norte 0 -- -- 57
2018-05-06 14:00:00 21.9 6 Nordeste 16 Nordeste 0 -- -- 57
2018-05-06 13:00:00 21.2 7 Nordeste 13 Nordeste 0 -- -- 62
2018-05-06 12:00:00 20.4 5 Nordeste 8 Norte 0 -- -- 63
2018-05-06 11:00:00 20.4 5 Nordeste 15 Norte 0 -- -- 62
2018-05-06 10:00:00 19 6 Noroeste 15 Norte 0 -- -- 70
2018-05-06 09:00:00 18 4 Sudeste 31 Norte 0 -- -- 77
2018-05-06 08:00:00 18.1 8 Norte 15 Noroeste 0 -- -- 74
2018-05-06 07:00:00 18 3 Norte 27 Norte 0 -- -- 73
2018-05-06 06:00:00 18.4 9 Noroeste 18 Norte 0 -- -- 75
2018-05-06 05:00:00 18.4 9 Norte 15 Norte 0 -- -- 75
2018-05-06 04:00:00 18.1 7 Noroeste 13 Noroeste 0 -- -- 73
2018-05-06 03:00:00 17.9 5 Noroeste 10 Noroeste 0 -- -- 75
2018-05-06 02:00:00 17.1 4 Sur 6 Sur 0 -- -- 71
2018-05-06 01:00:00 17 3 Sudeste 11 Sudeste 0 -- -- 70
2018-05-06 00:00:00 16.6 5 Sur 10 Sur 0 -- -- 72
2018-05-05 23:00:00 16.3 3 Sur 7 Sur 0 -- -- 70
2018-05-05 22:00:00 17 5 Sudeste 7 Sur 0 -- -- 71
2018-05-05 21:00:00 18.4 2 Nordeste 8 Este 0 -- -- 73
2018-05-05 20:00:00 18.9 2 Norte 19 Noroeste 0 -- -- 74
2018-05-05 19:00:00 19.7 12 Noroeste 19 Noroeste 0 -- -- 71
2018-05-05 18:00:00 20.5 4 Nordeste 10 Nordeste 0 -- -- 60
2018-05-05 17:00:00 20.7 5 Nordeste 12 Nordeste 0 -- -- 62
2018-05-05 16:00:00 22.3 9 Nordeste 13 Nordeste 0 -- -- 55
2018-05-05 15:00:00 21.7 7 Nordeste 17 Nordeste 0 -- -- 57
2018-05-05 14:00:00 21.7 13 Nordeste 19 Nordeste 0 -- -- 57
2018-05-05 13:00:00 21.9 13 Nordeste 19 Nordeste 0 -- -- 56
2018-05-05 12:00:00 21.5 11 Nordeste 18 Nordeste 0 -- -- 55
2018-05-05 11:00:00 21.1 13 Nordeste 24 Nordeste 0 -- -- 60
2018-05-05 10:00:00 20.6 5 Este 14 Sudeste 0 -- -- 61
2018-05-05 09:00:00 19 3 Sudoeste 8 Sur 0 -- -- 64
2018-05-05 08:00:00 16.4 7 Sudoeste 11 Sur 0 -- -- 66
2018-05-05 07:00:00 16.4 9 Sur 13 Sur 0 -- -- 65
2018-05-05 06:00:00 16.9 6 Sur 13 Sur 0 -- -- 65
2018-05-05 05:00:00 17.2 6 Sur 14 Sur 0 -- -- 66
2018-05-05 04:00:00 17.2 9 Sur 21 Sur 0 -- -- 65
2018-05-05 03:00:00 16.7 9 Sudeste 21 Nordeste 0 -- -- 65
2018-05-05 02:00:00 16.9 10 Sur 17 Sur 0 -- -- 63
2018-05-05 01:00:00 17.2 11 Sur 18 Sudeste 0 -- -- 70
2018-05-05 00:00:00 18.3 6 Sudeste 22 Nordeste 0 -- -- 71
2018-05-04 23:00:00 18.8 7 Este 20 Nordeste 0 -- -- 73
2018-05-04 22:00:00 18.9 13 Nordeste 23 Nordeste 0 -- -- 74
2018-05-04 21:00:00 19.2 13 Este 22 Nordeste 0 -- -- 72
2018-05-04 20:00:00 19.6 10 Este 25 Nordeste 0 -- -- 71
2018-05-04 19:00:00 20.2 14 Nordeste 23 Nordeste 0 -- -- 71
2018-05-04 18:00:00 20.3 15 Nordeste 27 Nordeste 0 -- -- 66
2018-05-04 17:00:00 20.7 12 Nordeste 23 Nordeste 0 -- -- 69
2018-05-04 16:00:00 20.5 14 Nordeste 22 Nordeste 0 -- -- 67
2018-05-04 15:00:00 20.1 15 Nordeste 24 Nordeste 0 -- -- 71
2018-05-04 14:00:00 20.6 10 Nordeste 22 Nordeste 0 -- -- 71
2018-05-04 13:00:00 20.5 10 Nordeste 21 Nordeste 0 -- -- 68
2018-05-04 12:00:00 19.9 11 Nordeste 22 Este 0 -- -- 74
2018-05-04 11:00:00 20.1 12 Este 23 Este 0 -- -- 71
2018-05-04 10:00:00 19.6 16 Este 27 Este 0 -- -- 71
2018-05-04 09:00:00 20 16 Nordeste 21 Nordeste 0 -- -- 67
2018-05-04 08:00:00 17.7 6 Sudeste 21 Sur 0 -- -- 64
2018-05-04 07:00:00 17.3 10 Sudeste 18 Sudeste 0 -- -- 69
2018-05-04 06:00:00 18 10 Sudeste 16 Este 0 -- -- 69
2018-05-04 05:00:00 18.1 6 Este 15 Este 0 -- -- 73
2018-05-04 04:00:00 18.4 12 Este 21 Este 0 -- -- 74
2018-05-04 03:00:00 18.6 15 Nordeste 24 Nordeste 0 -- -- 75
2018-05-04 02:00:00 18.6 11 Este 18 Este 0 -- -- 74
2018-05-04 01:00:00 18.8 11 Este 22 Nordeste 0 -- -- 74
2018-05-04 00:00:00 18.7 9 Este 19 Este 0 -- -- 74
2018-05-03 23:00:00 19.1 13 Este 20 Este 0 -- -- 73
2018-05-03 22:00:00 19.1 14 Este 23 Este 0 -- -- 72
2018-05-03 21:00:00 19.2 12 Este 20 Este 0 -- -- 73
2018-05-03 20:00:00 19.9 13 Este 19 Nordeste 0 -- -- 72
2018-05-03 19:00:00 20.5 9 Nordeste 19 Nordeste 0 -- -- 71
2018-05-03 18:00:00 20.8 12 Norte 24 Nordeste 0 -- -- 69
2018-05-03 17:00:00 21.7 15 Nordeste 22 Nordeste 0 -- -- 66
2018-05-03 16:00:00 22.9 12 Nordeste 17 Nordeste 0 -- -- 61
2018-05-03 15:00:00 22.6 11 Nordeste 16 Nordeste 0 -- -- 63
2018-05-03 14:00:00 22.1 9 Este 17 Nordeste 0 -- -- 64
2018-05-03 13:00:00 20.6 9 Nordeste 19 Nordeste 0 -- -- 67
2018-05-03 12:00:00 20.1 13 Nordeste 21 Nordeste 0 -- -- 72
2018-05-03 11:00:00 19.2 15 Este 24 Nordeste 0 -- -- 74
2018-05-03 10:00:00 19.4 7 Este 17 Nordeste 0 -- -- 74
2018-05-03 09:00:00 18.6 12 Nordeste 25 Nordeste 0 -- -- 80
2018-05-03 08:00:00 17.6 2 Nordeste 9 Sudeste 0 -- -- 81
2018-05-03 07:00:00 17.9 4 Sudeste 26 Norte 0.4 -- -- 81
2018-05-03 06:00:00 18.4 8 Nordeste 15 Norte 0 -- -- 73
2018-05-03 05:00:00 18.1 5 Sudeste 15 Este 0 -- -- 72
2018-05-03 04:00:00 17.9 7 Este 25 Noroeste 0 -- -- 71
2018-05-03 03:00:00 18.4 18 Norte 25 Norte 0 -- -- 76
2018-05-03 02:00:00 17.5 7 Sur 9 Sudeste 0 -- -- 74
2018-05-03 01:00:00 17.2 6 Sur 11 Sudeste 0 -- -- 73
2018-05-03 00:00:00 17.4 4 Sur 13 Sudeste 0 -- -- 69
2018-05-02 23:00:00 18.2 5 Sur 23 Este 0 -- -- 63
2018-05-02 22:00:00 18.7 11 Sudeste 21 Sudeste 0 -- -- 66
2018-05-02 21:00:00 19.1 4 Este 17 Norte 0 -- -- 75
2018-05-02 20:00:00 19.7 9 Norte 14 Norte 0 -- -- 76
2018-05-02 19:00:00 20.6 13 Noroeste 23 Noroeste 0 -- -- 75
2018-05-02 18:00:00 21.2 10 Noroeste 24 Noroeste 0 -- -- 68
2018-05-02 17:00:00 22.5 10 Norte 16 Noroeste 0 -- -- 63
2018-05-02 16:00:00 22.2 5 Norte 12 Norte 0 -- -- 62
2018-05-02 15:00:00 22.6 8 Norte 18 Noroeste 0 -- -- 59
2018-05-02 14:00:00 22.1 9 Noroeste 13 Norte 0 -- -- 59
2018-05-02 13:00:00 22.8 10 Noroeste 14 Noroeste 0 -- -- 59
2018-05-02 12:00:00 22.3 8 Norte 12 Norte 0 -- -- 63
2018-05-02 11:00:00 21 6 Norte 9 Norte 0 -- -- 66
2018-05-02 10:00:00 19.2 5 Norte 13 Norte 0 -- -- 72
2018-05-02 09:00:00 19.1 8 Norte 13 Norte 0 -- -- 72
2018-05-02 08:00:00 18.3 9 Norte 15 Norte 0 -- -- 77
2018-05-02 07:00:00 17.9 3 Norte 9 Noroeste 0 -- -- 77
2018-05-02 06:00:00 18 5 Nordeste 8 Nordeste 0 -- -- 76
2018-05-02 05:00:00 18 4 Sudeste 8 Sudeste 0 -- -- 71
2018-05-02 04:00:00 18.1 2 Sur 14 Nordeste 0 -- -- 73
2018-05-02 03:00:00 18.4 10 Nordeste 15 Este 0 -- -- 76
2018-05-02 02:00:00 18.1 4 Sudeste 13 Nordeste 0 -- -- 72
2018-05-02 01:00:00 18.4 10 Este 17 Nordeste 0 -- -- 73
2018-05-02 00:00:00 18.7 9 Nordeste 16 Nordeste 0 -- -- 73
2018-05-01 23:00:00 18.7 9 Este 15 Este 0 -- -- 72
2018-05-01 22:00:00 18.8 10 Este 17 Nordeste 0 -- -- 73
2018-05-01 21:00:00 19.1 12 Nordeste 22 Nordeste 0 -- -- 71
2018-05-01 20:00:00 19.6 17 Este 26 Nordeste 0 -- -- 69
2018-05-01 19:00:00 20.8 13 Este 21 Nordeste 0 -- -- 64
2018-05-01 18:00:00 21.5 9 Nordeste 18 Este 0 -- -- 61
2018-05-01 17:00:00 22 10 Este 15 Este 0 -- -- 59
2018-05-01 16:00:00 22.3 8 Nordeste 14 Nordeste 0 -- -- 58
2018-05-01 15:00:00 22.4 9 Nordeste 15 Nordeste 0 -- -- 55
2018-05-01 14:00:00 22.5 11 Nordeste 21 Nordeste 0 -- -- 56
2018-05-01 13:00:00 22.1 12 Nordeste 20 Nordeste 0 -- -- 59
2018-05-01 12:00:00 21.3 15 Nordeste 21 Nordeste 0 -- -- 59
2018-05-01 11:00:00 20.6 13 Nordeste 23 Este 0 -- -- 61
2018-05-01 10:00:00 19.9 15 Nordeste 21 Este 0 -- -- 63
2018-05-01 09:00:00 18.2 10 Este 19 Este 0 -- -- 64
2018-05-01 08:00:00 17.2 13 Sudeste 20 Sudeste 0 -- -- 66
2018-05-01 07:00:00 16.9 8 Este 31 Sudeste 0 -- -- 69
2018-05-01 06:00:00 17 12 Sudeste 21 Sudeste 0 -- -- 67
2018-05-01 05:00:00 17.1 12 Sudeste 21 Sudeste 0 -- -- 69
2018-05-01 04:00:00 17.1 10 Sudeste 22 Nordeste 0 -- -- 68
2018-05-01 03:00:00 17.7 14 Este 23 Este 0 -- -- 70
2018-05-01 02:00:00 17.4 9 Este 18 Sudeste 0 -- -- 69
2018-05-01 01:00:00 17.1 6 Sudeste 21 Nordeste 0 -- -- 67
2018-05-01 00:00:00 18.1 13 Nordeste 22 Nordeste 0 -- -- 69
2018-04-30 23:00:00 18.1 13 Nordeste 19 Nordeste 0 -- -- 67
2018-04-30 22:00:00 18.1 10 Nordeste 22 Nordeste 0 -- -- 65
2018-04-30 21:00:00 18.2 11 Nordeste 21 Nordeste 0 -- -- 67
2018-04-30 20:00:00 18.9 11 Nordeste 23 Nordeste 0 -- -- 65
2018-04-30 19:00:00 19.6 14 Nordeste 19 Nordeste 0 -- -- 63
2018-04-30 18:00:00 19.4 8 Nordeste 17 Nordeste 0 -- -- 63
2018-04-30 17:00:00 19.9 9 Nordeste 17 Nordeste 0 -- -- 62
2018-04-30 16:00:00 21.2 12 Nordeste 18 Nordeste 0 -- -- 59
2018-04-30 15:00:00 21.7 10 Nordeste 15 Nordeste 0 -- -- 55
2018-04-30 14:00:00 21.6 9 Nordeste 18 Nordeste 0 -- -- 56
2018-04-30 13:00:00 21.2 10 Nordeste 16 Nordeste 0 -- -- 57
2018-04-30 12:00:00 19.6 11 Este 23 Nordeste 0 -- -- 61
2018-04-30 11:00:00 18.9 12 Nordeste 23 Nordeste 0 -- -- 63
2018-04-30 10:00:00 18 13 Nordeste 27 Este 0 -- -- 64
2018-04-30 09:00:00 17.9 16 Nordeste 26 Nordeste 0 -- -- 63
2018-04-30 08:00:00 17.8 15 Nordeste 27 Nordeste 0 -- -- 66
2018-04-30 07:00:00 17.8 15 Nordeste 24 Este 0 -- -- 67
2018-04-30 06:00:00 17.7 11 Este 24 Este 0 -- -- 68
2018-04-30 05:00:00 17.7 16 Este 25 Nordeste 0 -- -- 65
2018-04-30 04:00:00 17.4 8 Este 19 Este 0 -- -- 67
2018-04-30 03:00:00 17.2 6 Sudeste 18 Sur 0 -- -- 64
2018-04-30 02:00:00 17.6 9 Este 22 Nordeste 0 -- -- 65
2018-04-30 01:00:00 17.8 14 Nordeste 23 Este 0 -- -- 67
2018-04-30 00:00:00 17.9 14 Este 24 Este 0 -- -- 66
2018-04-29 23:00:00 17.9 14 Nordeste 23 Nordeste 0 -- -- 66
2018-04-29 22:00:00 18.1 14 Este 23 Nordeste 0 -- -- 67
2018-04-29 21:00:00 18.2 11 Nordeste 22 Nordeste 0 -- -- 67
2018-04-29 20:00:00 18.6 13 Nordeste 26 Nordeste 0 -- -- 66
2018-04-29 19:00:00 19.4 17 Nordeste 31 Nordeste 0 -- -- 63
2018-04-29 18:00:00 20.1 14 Nordeste 31 Nordeste 0 -- -- 58
2018-04-29 17:00:00 20.4 24 Nordeste 36 Nordeste 0 -- -- 55
2018-04-29 16:00:00 19.6 18 Nordeste 31 Nordeste 0 -- -- 63
2018-04-29 15:00:00 19.6 14 Nordeste 27 Nordeste 0 -- -- 63
2018-04-29 14:00:00 19.6 20 Nordeste 31 Nordeste 0 -- -- 67
2018-04-29 13:00:00 19.7 17 Nordeste 32 Nordeste 0 -- -- 62
2018-04-29 12:00:00 21 17 Nordeste 32 Nordeste 0 -- -- 60
2018-04-29 11:00:00 19.8 18 Nordeste 30 Nordeste 0 -- -- 60
2018-04-29 10:00:00 18.8 11 Nordeste 24 Este 0 -- -- 61
2018-04-29 09:00:00 17.8 12 Este 25 Nordeste 0 -- -- 64
2018-04-29 08:00:00 17.6 10 Este 22 Este 0 -- -- 70
2018-04-29 07:00:00 17.7 8 Este 27 Este 0 -- -- 73
2018-04-29 06:00:00 18 13 Nordeste 32 Nordeste 0 -- -- 74
2018-04-29 05:00:00 18.2 17 Este 31 Nordeste 0 -- -- 76
2018-04-29 04:00:00 18.2 18 Este 29 Nordeste 0 -- -- 76
2018-04-29 03:00:00 18.2 17 Este 26 Este 0 -- -- 78
2018-04-29 02:00:00 18.2 17 Este 27 Este 0 -- -- 80
2018-04-29 01:00:00 18.5 17 Este 32 Este 0 -- -- 80
2018-04-29 00:00:00 18.7 17 Este 31 Este 0 -- -- 79
2018-04-28 23:00:00 18.8 21 Este 28 Este 0 -- -- 78
2018-04-28 22:00:00 19 13 Este 28 Nordeste 0 -- -- 78
2018-04-28 21:00:00 19.2 12 Este 22 Nordeste 0 -- -- 70
2018-04-28 20:00:00 20.1 11 Este 23 Este 0 -- -- 66
2018-04-28 19:00:00 21.7 15 Este 27 Sudeste 0 -- -- 59
2018-04-28 18:00:00 21.4 12 Este 26 Este 0 -- -- 62
2018-04-28 17:00:00 20.1 16 Este 26 Nordeste 0 -- -- 70
2018-04-28 16:00:00 21.1 16 Nordeste 30 Nordeste 0 -- -- 68
2018-04-28 15:00:00 21.2 14 Nordeste 22 Nordeste 0 -- -- 66
2018-04-28 14:00:00 21.1 10 Nordeste 19 Norte 0 -- -- 66
2018-04-28 13:00:00 21.6 13 Este 34 Nordeste 0 -- -- 63
2018-04-28 12:00:00 21.3 18 Nordeste 33 Nordeste 0 -- -- 63
2018-04-28 11:00:00 20.9 15 Este 25 Nordeste 0 -- -- 66
2018-04-28 10:00:00 19.4 12 Este 25 Nordeste 0 -- -- 69
2018-04-28 09:00:00 17.8 12 Este 27 Sudeste 0 -- -- 72
2018-04-28 08:00:00 16.3 14 Sudeste 22 Sudeste 0 -- -- 73
2018-04-28 07:00:00 16.3 11 Sudeste 20 Sudeste 0 -- -- 73
2018-04-28 06:00:00 16.6 9 Sudeste 23 Sudeste 0 -- -- 75
2018-04-28 05:00:00 16.8 11 Sudeste 23 Sur 0 -- -- 77
2018-04-28 04:00:00 16.7 13 Sudeste 21 Sudeste 0 -- -- 77
2018-04-28 03:00:00 16.8 10 Sudeste 18 Sudeste 0 -- -- 76
2018-04-28 02:00:00 17.3 10 Sudeste 22 Sudeste 0 -- -- 75
2018-04-28 01:00:00 17.4 13 Sudeste 24 Sudeste 0 -- -- 73
2018-04-28 00:00:00 17.9 15 Sudeste 26 Este 0 -- -- 73
2018-04-27 23:00:00 18 10 Este 21 Este 0 -- -- 74
2018-04-27 22:00:00 18.4 13 Este 21 Este 0 -- -- 75
2018-04-27 21:00:00 18.7 12 Este 19 Este 0 -- -- 75
2018-04-27 20:00:00 19.2 13 Este 33 Nordeste 0 -- -- 72
2018-04-27 19:00:00 19.4 16 Este 32 Nordeste 0 -- -- 72
2018-04-27 18:00:00 19.5 19 Nordeste 30 Nordeste 0 -- -- 73
2018-04-27 17:00:00 19.7 15 Nordeste 27 Nordeste 0 -- -- 70
2018-04-27 16:00:00 20 14 Nordeste 30 Nordeste 0 -- -- 71
2018-04-27 15:00:00 19.4 10 Nordeste 28 Nordeste 0 -- -- 72
2018-04-27 14:00:00 19.5 15 Nordeste 33 Nordeste 0 -- -- 72
2018-04-27 13:00:00 19.4 18 Nordeste 36 Nordeste 0 -- -- 73
2018-04-27 12:00:00 19.4 19 Nordeste 32 Este 0 -- -- 70
2018-04-27 11:00:00 19.3 12 Este 28 Este 0 -- -- 70
2018-04-27 10:00:00 18.4 15 Este 24 Nordeste 0 -- -- 73
2018-04-27 09:00:00 17.9 11 Este 27 Este 0 -- -- 73
2018-04-27 08:00:00 17.6 12 Sudeste 31 Este 0 -- -- 72
2018-04-27 07:00:00 17.6 11 Este 30 Este 0 -- -- 75
2018-04-27 06:00:00 17.8 15 Este 26 Este 0 -- -- 74
2018-04-27 05:00:00 18.1 16 Nordeste 23 Nordeste 0 -- -- 76
2018-04-27 04:00:00 18.1 15 Este 35 Nordeste 0 -- -- 74
2018-04-27 03:00:00 18.1 19 Este 31 Nordeste 0 -- -- 75
2018-04-27 02:00:00 17.9 10 Sudeste 18 Este 0 -- -- 72
2018-04-27 01:00:00 18.3 14 Este 24 Nordeste 0 -- -- 76
2018-04-27 00:00:00 17.8 12 Sudeste 26 Este 0 -- -- 71
2018-04-26 23:00:00 18.6 19 Nordeste 34 Nordeste 0 -- -- 74
2018-04-26 22:00:00 18.7 19 Este 35 Nordeste 0 -- -- 75
2018-04-26 21:00:00 18.8 20 Este 30 Este 0 -- -- 75
2018-04-26 20:00:00 -- -- -- -- -- -- -- -- --
2018-04-26 19:00:00 20.4 12 Este 23 Sudeste 0 -- -- 69
2018-04-26 18:00:00 20.2 12 Este 44 Nordeste 0 -- -- 70
2018-04-26 17:00:00 19.7 20 Nordeste 35 Nordeste 0 -- -- 75
2018-04-26 16:00:00 20 16 Nordeste 33 Nordeste 0 -- -- 72
2018-04-26 15:00:00 19.9 21 Nordeste 36 Nordeste 0 -- -- 76
2018-04-26 14:00:00 20.5 15 Nordeste 25 Este 0 -- -- 71
2018-04-26 13:00:00 20.2 20 Nordeste 36 Nordeste 0 -- -- 67
2018-04-26 12:00:00 19.7 21 Nordeste 34 Nordeste 0 -- -- 69
2018-04-26 11:00:00 20 15 Nordeste 26 Este 0 -- -- 71
2018-04-26 10:00:00 18.7 17 Nordeste 24 Este 0 -- -- 72
2018-04-26 09:00:00 18.4 15 Este 26 Este 0 -- -- 70
2018-04-26 08:00:00 18.1 9 Sudeste 32 Nordeste 0 -- -- 72
2018-04-26 07:00:00 18.3 17 Este 27 Nordeste 0 -- -- 72
2018-04-26 06:00:00 18.1 11 Sudeste 27 Nordeste 0 -- -- 70
2018-04-26 05:00:00 18 9 Sudeste 24 Este 0 -- -- 69
2018-04-26 04:00:00 18.5 15 Nordeste 30 Este 0 -- -- 74
2018-04-26 03:00:00 18.4 13 Este 24 Este 0 -- -- 73
2018-04-26 02:00:00 18.4 11 Este 23 Nordeste 0 -- -- 70
2018-04-26 01:00:00 18.4 10 Este 28 Este 0 -- -- 71
2018-04-26 00:00:00 18.5 10 Este 32 Nordeste 0 -- -- 69
2018-04-25 23:00:00 18.7 16 Este 30 Este 0 -- -- 71
2018-04-25 22:00:00 18 10 Sudeste 23 Este 0 -- -- 71
2018-04-25 21:00:00 19 15 Este 30 Este 0 -- -- 73
2018-04-25 20:00:00 19.3 17 Nordeste 34 Este 0 -- -- 72
2018-04-25 19:00:00 19.6 17 Este 30 Nordeste 0 -- -- 71
2018-04-25 18:00:00 19.8 16 Nordeste 28 Nordeste 0 -- -- 71
2018-04-25 17:00:00 20.1 19 Nordeste 29 Nordeste 0 -- -- 69
2018-04-25 16:00:00 20.9 18 Nordeste 31 Nordeste 0 -- -- 64
2018-04-25 15:00:00 20.8 18 Nordeste 35 Nordeste 0 -- -- 64
2018-04-25 14:00:00 21.2 15 Este 33 Este 0 -- -- 63
2018-04-25 13:00:00 20.4 21 Nordeste 36 Nordeste 0 -- -- 70
2018-04-25 12:00:00 20.4 15 Nordeste 31 Este 0 -- -- 68
2018-04-25 11:00:00 19.8 17 Nordeste 31 Nordeste 0 -- -- 71
2018-04-25 10:00:00 19.8 17 Este 31 Nordeste 0 -- -- 68
2018-04-25 09:00:00 18.5 18 Este 28 Este 0 -- -- 75
2018-04-25 08:00:00 18.2 20 Este 27 Nordeste 0 -- -- 77
2018-04-25 07:00:00 17.8 9 Sudeste 20 Sudeste 0 -- -- 75
2018-04-25 06:00:00 17.3 12 Sudeste 20 Sudeste 0 -- -- 74
2018-04-25 05:00:00 18.1 8 Sudeste 28 Nordeste 0 -- -- 78
2018-04-25 04:00:00 18.4 9 Este 25 Este 0 -- -- 80
2018-04-25 03:00:00 17.9 10 Sudeste 17 Sudeste 0 -- -- 80
2018-04-25 02:00:00 18 8 Sudeste 22 Sudeste 0 -- -- 76
2018-04-25 01:00:00 18.4 11 Este 25 Este 0 -- -- 79
2018-04-25 00:00:00 19 8 Este 19 Este 0 -- -- 80